sensor_id;sensor_type;location;lat;lon;timestamp;P1;durP1;ratioP1;P2;durP2;ratioP2
12816;SDS011;6473;51.552;6.716;2022-09-25T00:02:13;6.57;;;4.15;;
12816;SDS011;6473;51.552;6.716;2022-09-25T00:04:40;7.75;;;4.55;;
12816;SDS011;6473;51.552;6.716;2022-09-25T00:07:07;6.93;;;4.00;;
12816;SDS011;6473;51.552;6.716;2022-09-25T00:09:34;7.82;;;4.18;;
12816;SDS011;6473;51.552;6.716;2022-09-25T00:12:02;5.72;;;3.50;;
12816;SDS011;6473;51.552;6.716;2022-09-25T00:14:29;5.82;;;3.67;;
12816;SDS011;6473;51.552;6.716;2022-09-25T00:16:56;7.43;;;3.78;;
12816;SDS011;6473;51.552;6.716;2022-09-25T00:19:23;5.07;;;2.78;;
12816;SDS011;6473;51.552;6.716;2022-09-25T00:22:07;3.83;;;2.75;;
12816;SDS011;6473;51.552;6.716;2022-09-25T00:24:34;5.30;;;2.90;;
12816;SDS011;6473;51.552;6.716;2022-09-25T00:27:02;5.78;;;3.08;;
12816;SDS011;6473;51.552;6.716;2022-09-25T00:29:32;7.38;;;3.00;;
12816;SDS011;6473;51.552;6.716;2022-09-25T00:32:01;3.97;;;2.90;;
12816;SDS011;6473;51.552;6.716;2022-09-25T00:34:28;5.57;;;2.97;;
12816;SDS011;6473;51.552;6.716;2022-09-25T00:36:55;5.25;;;2.95;;
12816;SDS011;6473;51.552;6.716;2022-09-25T00:39:22;5.65;;;2.50;;
12816;SDS011;6473;51.552;6.716;2022-09-25T00:41:50;3.55;;;2.45;;
12816;SDS011;6473;51.552;6.716;2022-09-25T00:47:26;5.80;;;2.55;;
12816;SDS011;6473;51.552;6.716;2022-09-25T00:50:00;4.65;;;2.25;;
12816;SDS011;6473;51.552;6.716;2022-09-25T00:52:29;4.50;;;2.40;;
12816;SDS011;6473;51.552;6.716;2022-09-25T00:54:57;6.18;;;2.75;;
12816;SDS011;6473;51.552;6.716;2022-09-25T00:57:29;4.22;;;2.67;;
12816;SDS011;6473;51.552;6.716;2022-09-25T00:59:59;6.35;;;2.58;;
12816;SDS011;6473;51.552;6.716;2022-09-25T01:02:32;4.53;;;2.08;;
12816;SDS011;6473;51.552;6.716;2022-09-25T01:05:03;7.32;;;2.80;;
12816;SDS011;6473;51.552;6.716;2022-09-25T01:07:33;5.88;;;2.30;;
12816;SDS011;6473;51.552;6.716;2022-09-25T01:10:04;4.85;;;2.20;;
12816;SDS011;6473;51.552;6.716;2022-09-25T01:12:32;5.35;;;2.40;;
12816;SDS011;6473;51.552;6.716;2022-09-25T01:15:05;6.15;;;2.60;;
12816;SDS011;6473;51.552;6.716;2022-09-25T01:17:34;6.93;;;2.55;;
12816;SDS011;6473;51.552;6.716;2022-09-25T01:20:11;6.40;;;2.47;;
12816;SDS011;6473;51.552;6.716;2022-09-25T01:22:49;3.25;;;2.25;;
12816;SDS011;6473;51.552;6.716;2022-09-25T01:25:31;2.95;;;2.25;;
12816;SDS011;6473;51.552;6.716;2022-09-25T01:28:09;6.75;;;2.67;;
12816;SDS011;6473;51.552;6.716;2022-09-25T01:30:56;4.55;;;2.38;;
12816;SDS011;6473;51.552;6.716;2022-09-25T01:33:29;5.90;;;2.30;;
12816;SDS011;6473;51.552;6.716;2022-09-25T01:36:01;7.28;;;2.42;;
12816;SDS011;6473;51.552;6.716;2022-09-25T01:38:33;3.25;;;2.10;;
12816;SDS011;6473;51.552;6.716;2022-09-25T01:41:07;3.05;;;2.53;;
12816;SDS011;6473;51.552;6.716;2022-09-25T01:43:37;5.85;;;2.55;;
12816;SDS011;6473;51.552;6.716;2022-09-25T01:46:12;3.90;;;2.20;;
12816;SDS011;6473;51.552;6.716;2022-09-25T01:48:42;4.50;;;2.33;;
12816;SDS011;6473;51.552;6.716;2022-09-25T01:51:13;4.68;;;2.53;;
12816;SDS011;6473;51.552;6.716;2022-09-25T01:53:44;6.45;;;2.80;;
12816;SDS011;6473;51.552;6.716;2022-09-25T01:56:16;3.83;;;2.40;;
12816;SDS011;6473;51.552;6.716;2022-09-25T01:58:57;5.70;;;2.33;;
12816;SDS011;6473;51.552;6.716;2022-09-25T02:01:31;6.85;;;2.50;;
12816;SDS011;6473;51.552;6.716;2022-09-25T02:04:03;8.35;;;2.65;;
12816;SDS011;6473;51.552;6.716;2022-09-25T02:06:35;3.35;;;2.42;;
12816;SDS011;6473;51.552;6.716;2022-09-25T02:09:05;7.30;;;3.20;;
12816;SDS011;6473;51.552;6.716;2022-09-25T02:11:36;8.80;;;3.10;;
12816;SDS011;6473;51.552;6.716;2022-09-25T02:14:08;6.97;;;3.28;;
12816;SDS011;6473;51.552;6.716;2022-09-25T02:16:40;6.78;;;3.17;;
12816;SDS011;6473;51.552;6.716;2022-09-25T02:19:08;6.43;;;3.03;;
12816;SDS011;6473;51.552;6.716;2022-09-25T02:21:55;9.02;;;3.45;;
12816;SDS011;6473;51.552;6.716;2022-09-25T02:24:31;3.17;;;2.88;;
12816;SDS011;6473;51.552;6.716;2022-09-25T02:27:01;4.80;;;3.28;;
12816;SDS011;6473;51.552;6.716;2022-09-25T02:29:28;6.10;;;3.28;;
12816;SDS011;6473;51.552;6.716;2022-09-25T02:31:58;5.95;;;3.40;;
12816;SDS011;6473;51.552;6.716;2022-09-25T02:34:29;6.35;;;2.90;;
12816;SDS011;6473;51.552;6.716;2022-09-25T02:36:57;5.60;;;3.13;;
12816;SDS011;6473;51.552;6.716;2022-09-25T02:39:24;7.85;;;3.13;;
12816;SDS011;6473;51.552;6.716;2022-09-25T02:41:57;5.00;;;2.72;;
12816;SDS011;6473;51.552;6.716;2022-09-25T02:44:39;8.60;;;3.28;;
12816;SDS011;6473;51.552;6.716;2022-09-25T02:47:20;4.97;;;2.53;;
12816;SDS011;6473;51.552;6.716;2022-09-25T02:49:58;4.00;;;2.67;;
12816;SDS011;6473;51.552;6.716;2022-09-25T02:52:32;4.38;;;2.42;;
12816;SDS011;6473;51.552;6.716;2022-09-25T02:55:10;6.40;;;2.78;;
12816;SDS011;6473;51.552;6.716;2022-09-25T02:57:44;5.63;;;3.25;;
12816;SDS011;6473;51.552;6.716;2022-09-25T03:00:17;5.15;;;2.95;;
12816;SDS011;6473;51.552;6.716;2022-09-25T03:02:48;3.25;;;2.50;;
12816;SDS011;6473;51.552;6.716;2022-09-25T03:05:18;5.70;;;2.50;;
12816;SDS011;6473;51.552;6.716;2022-09-25T03:07:46;6.78;;;2.88;;
12816;SDS011;6473;51.552;6.716;2022-09-25T03:10:31;5.10;;;2.83;;
12816;SDS011;6473;51.552;6.716;2022-09-25T03:13:11;4.15;;;2.40;;
12816;SDS011;6473;51.552;6.716;2022-09-25T03:15:43;4.00;;;2.00;;
12816;SDS011;6473;51.552;6.716;2022-09-25T03:18:14;4.15;;;2.40;;
12816;SDS011;6473;51.552;6.716;2022-09-25T03:20:41;4.22;;;2.03;;
12816;SDS011;6473;51.552;6.716;2022-09-25T03:23:08;4.22;;;2.25;;
12816;SDS011;6473;51.552;6.716;2022-09-25T03:25:36;2.42;;;1.88;;
12816;SDS011;6473;51.552;6.716;2022-09-25T03:28:03;4.28;;;2.10;;
12816;SDS011;6473;51.552;6.716;2022-09-25T03:30:34;4.50;;;1.92;;
12816;SDS011;6473;51.552;6.716;2022-09-25T03:33:02;3.25;;;2.00;;
12816;SDS011;6473;51.552;6.716;2022-09-25T03:35:30;4.90;;;2.58;;
12816;SDS011;6473;51.552;6.716;2022-09-25T03:37:57;7.25;;;2.75;;
12816;SDS011;6473;51.552;6.716;2022-09-25T03:40:24;4.68;;;2.10;;
12816;SDS011;6473;51.552;6.716;2022-09-25T03:42:51;5.25;;;2.17;;
12816;SDS011;6473;51.552;6.716;2022-09-25T03:45:18;5.45;;;1.75;;
12816;SDS011;6473;51.552;6.716;2022-09-25T03:47:45;4.72;;;2.20;;
12816;SDS011;6473;51.552;6.716;2022-09-25T03:50:12;3.75;;;2.10;;
12816;SDS011;6473;51.552;6.716;2022-09-25T03:52:40;6.43;;;2.20;;
12816;SDS011;6473;51.552;6.716;2022-09-25T03:55:07;4.22;;;2.20;;
12816;SDS011;6473;51.552;6.716;2022-09-25T03:57:36;6.32;;;2.25;;
12816;SDS011;6473;51.552;6.716;2022-09-25T04:00:03;6.90;;;2.17;;
12816;SDS011;6473;51.552;6.716;2022-09-25T04:02:37;5.68;;;2.10;;
12816;SDS011;6473;51.552;6.716;2022-09-25T04:05:04;4.95;;;2.08;;
12816;SDS011;6473;51.552;6.716;2022-09-25T04:07:34;5.10;;;2.05;;
12816;SDS011;6473;51.552;6.716;2022-09-25T04:10:02;4.07;;;1.92;;
12816;SDS011;6473;51.552;6.716;2022-09-25T04:12:29;3.65;;;2.47;;
12816;SDS011;6473;51.552;6.716;2022-09-25T04:14:56;2.00;;;1.80;;
12816;SDS011;6473;51.552;6.716;2022-09-25T04:17:23;2.88;;;2.33;;
12816;SDS011;6473;51.552;6.716;2022-09-25T04:19:50;3.28;;;2.60;;
12816;SDS011;6473;51.552;6.716;2022-09-25T04:22:17;4.45;;;2.38;;
12816;SDS011;6473;51.552;6.716;2022-09-25T04:24:44;4.07;;;1.95;;
12816;SDS011;6473;51.552;6.716;2022-09-25T04:27:15;4.07;;;2.38;;
12816;SDS011;6473;51.552;6.716;2022-09-25T04:29:44;4.53;;;2.17;;
12816;SDS011;6473;51.552;6.716;2022-09-25T04:32:11;3.90;;;1.80;;
12816;SDS011;6473;51.552;6.716;2022-09-25T04:34:56;4.75;;;2.20;;
12816;SDS011;6473;51.552;6.716;2022-09-25T04:37:24;8.30;;;2.30;;
12816;SDS011;6473;51.552;6.716;2022-09-25T04:39:51;3.83;;;2.00;;
12816;SDS011;6473;51.552;6.716;2022-09-25T04:42:20;4.55;;;2.20;;
12816;SDS011;6473;51.552;6.716;2022-09-25T04:44:49;3.92;;;2.03;;
12816;SDS011;6473;51.552;6.716;2022-09-25T04:47:17;3.67;;;2.00;;
12816;SDS011;6473;51.552;6.716;2022-09-25T04:49:45;6.70;;;2.38;;
12816;SDS011;6473;51.552;6.716;2022-09-25T04:52:12;4.82;;;2.40;;
12816;SDS011;6473;51.552;6.716;2022-09-25T04:54:39;3.67;;;2.05;;
12816;SDS011;6473;51.552;6.716;2022-09-25T04:57:07;6.90;;;2.35;;
12816;SDS011;6473;51.552;6.716;2022-09-25T04:59:35;3.38;;;2.15;;
12816;SDS011;6473;51.552;6.716;2022-09-25T05:02:02;4.10;;;2.10;;
12816;SDS011;6473;51.552;6.716;2022-09-25T05:04:29;4.30;;;2.28;;
12816;SDS011;6473;51.552;6.716;2022-09-25T05:06:56;2.95;;;2.17;;
12816;SDS011;6473;51.552;6.716;2022-09-25T05:09:23;9.20;;;2.53;;
12816;SDS011;6473;51.552;6.716;2022-09-25T05:11:50;4.78;;;2.03;;
12816;SDS011;6473;51.552;6.716;2022-09-25T05:14:17;4.75;;;2.60;;
12816;SDS011;6473;51.552;6.716;2022-09-25T05:16:45;5.45;;;2.75;;
12816;SDS011;6473;51.552;6.716;2022-09-25T05:19:12;4.75;;;2.83;;
12816;SDS011;6473;51.552;6.716;2022-09-25T05:21:39;3.72;;;2.80;;
12816;SDS011;6473;51.552;6.716;2022-09-25T05:24:07;5.60;;;3.20;;
12816;SDS011;6473;51.552;6.716;2022-09-25T05:26:34;6.38;;;2.35;;
12816;SDS011;6473;51.552;6.716;2022-09-25T05:29:01;6.97;;;2.67;;
12816;SDS011;6473;51.552;6.716;2022-09-25T05:31:28;7.25;;;2.50;;
12816;SDS011;6473;51.552;6.716;2022-09-25T05:33:57;5.70;;;2.65;;
12816;SDS011;6473;51.552;6.716;2022-09-25T05:36:24;4.28;;;2.33;;
12816;SDS011;6473;51.552;6.716;2022-09-25T05:38:51;7.18;;;3.22;;
12816;SDS011;6473;51.552;6.716;2022-09-25T05:41:18;5.95;;;2.65;;
12816;SDS011;6473;51.552;6.716;2022-09-25T05:43:45;4.47;;;2.50;;
12816;SDS011;6473;51.552;6.716;2022-09-25T05:46:13;8.60;;;2.55;;
12816;SDS011;6473;51.552;6.716;2022-09-25T05:48:40;4.10;;;2.30;;
12816;SDS011;6473;51.552;6.716;2022-09-25T05:51:09;4.78;;;2.55;;
12816;SDS011;6473;51.552;6.716;2022-09-25T05:53:36;4.60;;;2.67;;
12816;SDS011;6473;51.552;6.716;2022-09-25T05:56:03;5.60;;;2.47;;
12816;SDS011;6473;51.552;6.716;2022-09-25T05:58:31;6.97;;;2.58;;
12816;SDS011;6473;51.552;6.716;2022-09-25T06:00:59;4.85;;;2.42;;
12816;SDS011;6473;51.552;6.716;2022-09-25T06:03:27;5.25;;;2.40;;
12816;SDS011;6473;51.552;6.716;2022-09-25T06:05:54;4.35;;;2.55;;
12816;SDS011;6473;51.552;6.716;2022-09-25T06:08:23;6.22;;;2.72;;
12816;SDS011;6473;51.552;6.716;2022-09-25T06:10:50;4.00;;;3.03;;
12816;SDS011;6473;51.552;6.716;2022-09-25T06:13:19;5.40;;;3.08;;
12816;SDS011;6473;51.552;6.716;2022-09-25T06:15:46;3.85;;;3.00;;
12816;SDS011;6473;51.552;6.716;2022-09-25T06:18:17;6.85;;;2.72;;
12816;SDS011;6473;51.552;6.716;2022-09-25T06:20:45;5.90;;;2.50;;
12816;SDS011;6473;51.552;6.716;2022-09-25T06:23:13;5.53;;;2.80;;
12816;SDS011;6473;51.552;6.716;2022-09-25T06:25:41;4.95;;;2.40;;
12816;SDS011;6473;51.552;6.716;2022-09-25T06:28:09;8.43;;;2.90;;
12816;SDS011;6473;51.552;6.716;2022-09-25T06:30:36;4.53;;;2.83;;
12816;SDS011;6473;51.552;6.716;2022-09-25T06:33:04;5.30;;;2.83;;
12816;SDS011;6473;51.552;6.716;2022-09-25T06:35:33;5.57;;;3.20;;
12816;SDS011;6473;51.552;6.716;2022-09-25T06:38:02;8.48;;;3.40;;
12816;SDS011;6473;51.552;6.716;2022-09-25T06:40:30;6.75;;;3.00;;
12816;SDS011;6473;51.552;6.716;2022-09-25T06:42:59;4.55;;;2.88;;
12816;SDS011;6473;51.552;6.716;2022-09-25T06:45:28;6.85;;;2.78;;
12816;SDS011;6473;51.552;6.716;2022-09-25T06:47:59;3.63;;;2.72;;
12816;SDS011;6473;51.552;6.716;2022-09-25T06:50:27;6.90;;;2.90;;
12816;SDS011;6473;51.552;6.716;2022-09-25T06:52:57;3.75;;;2.55;;
12816;SDS011;6473;51.552;6.716;2022-09-25T06:55:24;7.75;;;2.72;;
12816;SDS011;6473;51.552;6.716;2022-09-25T06:57:52;6.00;;;2.30;;
12816;SDS011;6473;51.552;6.716;2022-09-25T07:00:20;6.22;;;2.70;;
12816;SDS011;6473;51.552;6.716;2022-09-25T07:02:47;4.45;;;2.60;;
12816;SDS011;6473;51.552;6.716;2022-09-25T07:05:31;5.32;;;2.40;;
12816;SDS011;6473;51.552;6.716;2022-09-25T07:07:58;2.20;;;1.88;;
12816;SDS011;6473;51.552;6.716;2022-09-25T07:10:26;6.28;;;2.03;;
12816;SDS011;6473;51.552;6.716;2022-09-25T07:12:52;6.57;;;2.50;;
12816;SDS011;6473;51.552;6.716;2022-09-25T07:15:21;4.40;;;2.40;;
12816;SDS011;6473;51.552;6.716;2022-09-25T07:17:48;8.30;;;2.35;;
12816;SDS011;6473;51.552;6.716;2022-09-25T07:20:14;2.80;;;1.90;;
12816;SDS011;6473;51.552;6.716;2022-09-25T07:22:41;9.00;;;2.28;;
12816;SDS011;6473;51.552;6.716;2022-09-25T07:25:09;2.67;;;2.00;;
12816;SDS011;6473;51.552;6.716;2022-09-25T07:27:36;3.05;;;1.60;;
12816;SDS011;6473;51.552;6.716;2022-09-25T07:30:04;3.92;;;1.80;;
12816;SDS011;6473;51.552;6.716;2022-09-25T07:32:34;3.42;;;1.88;;
12816;SDS011;6473;51.552;6.716;2022-09-25T07:35:01;2.35;;;1.63;;
12816;SDS011;6473;51.552;6.716;2022-09-25T07:37:28;4.50;;;1.65;;
12816;SDS011;6473;51.552;6.716;2022-09-25T07:39:55;3.67;;;1.50;;
12816;SDS011;6473;51.552;6.716;2022-09-25T07:42:22;3.78;;;2.08;;
12816;SDS011;6473;51.552;6.716;2022-09-25T07:44:49;6.25;;;1.98;;
12816;SDS011;6473;51.552;6.716;2022-09-25T07:47:16;4.55;;;1.70;;
12816;SDS011;6473;51.552;6.716;2022-09-25T07:49:45;6.43;;;1.58;;
12816;SDS011;6473;51.552;6.716;2022-09-25T07:52:12;3.30;;;1.65;;
12816;SDS011;6473;51.552;6.716;2022-09-25T07:54:39;8.10;;;1.70;;
12816;SDS011;6473;51.552;6.716;2022-09-25T07:57:07;2.75;;;1.45;;
12816;SDS011;6473;51.552;6.716;2022-09-25T07:59:34;3.13;;;1.27;;
12816;SDS011;6473;51.552;6.716;2022-09-25T08:02:01;3.78;;;1.50;;
12816;SDS011;6473;51.552;6.716;2022-09-25T08:04:28;3.50;;;1.40;;
12816;SDS011;6473;51.552;6.716;2022-09-25T08:06:58;4.78;;;1.52;;
12816;SDS011;6473;51.552;6.716;2022-09-25T08:09:26;3.95;;;1.30;;
12816;SDS011;6473;51.552;6.716;2022-09-25T08:11:53;3.63;;;1.50;;
12816;SDS011;6473;51.552;6.716;2022-09-25T08:14:20;3.97;;;1.80;;
12816;SDS011;6473;51.552;6.716;2022-09-25T08:16:47;7.10;;;1.42;;
12816;SDS011;6473;51.552;6.716;2022-09-25T08:19:14;2.55;;;1.30;;
12816;SDS011;6473;51.552;6.716;2022-09-25T08:21:42;3.10;;;1.08;;
12816;SDS011;6473;51.552;6.716;2022-09-25T08:24:11;3.90;;;1.13;;
12816;SDS011;6473;51.552;6.716;2022-09-25T08:26:38;5.82;;;1.40;;
12816;SDS011;6473;51.552;6.716;2022-09-25T08:29:05;3.22;;;1.45;;
12816;SDS011;6473;51.552;6.716;2022-09-25T08:31:33;2.08;;;1.17;;
12816;SDS011;6473;51.552;6.716;2022-09-25T08:34:00;1.88;;;1.20;;
12816;SDS011;6473;51.552;6.716;2022-09-25T08:36:27;7.50;;;1.30;;
12816;SDS011;6473;51.552;6.716;2022-09-25T08:38:54;4.20;;;1.30;;
12816;SDS011;6473;51.552;6.716;2022-09-25T08:41:25;6.25;;;1.50;;
12816;SDS011;6473;51.552;6.716;2022-09-25T08:43:56;4.40;;;1.38;;
12816;SDS011;6473;51.552;6.716;2022-09-25T08:46:29;2.67;;;1.10;;
12816;SDS011;6473;51.552;6.716;2022-09-25T08:49:22;2.05;;;1.05;;
12816;SDS011;6473;51.552;6.716;2022-09-25T08:51:52;3.88;;;1.17;;
12816;SDS011;6473;51.552;6.716;2022-09-25T08:54:24;7.53;;;1.20;;
12816;SDS011;6473;51.552;6.716;2022-09-25T08:56:55;3.30;;;1.42;;
12816;SDS011;6473;51.552;6.716;2022-09-25T08:59:27;6.22;;;1.30;;
12816;SDS011;6473;51.552;6.716;2022-09-25T09:02:00;2.10;;;1.23;;
12816;SDS011;6473;51.552;6.716;2022-09-25T09:04:36;2.38;;;0.90;;
12816;SDS011;6473;51.552;6.716;2022-09-25T09:07:07;3.35;;;1.20;;
12816;SDS011;6473;51.552;6.716;2022-09-25T09:09:36;3.63;;;1.17;;
12816;SDS011;6473;51.552;6.716;2022-09-25T09:12:09;3.45;;;1.17;;
12816;SDS011;6473;51.552;6.716;2022-09-25T09:14:40;5.18;;;1.10;;
12816;SDS011;6473;51.552;6.716;2022-09-25T09:17:13;2.80;;;0.90;;
12816;SDS011;6473;51.552;6.716;2022-09-25T09:19:44;2.70;;;1.27;;
12816;SDS011;6473;51.552;6.716;2022-09-25T09:22:13;2.13;;;1.00;;
12816;SDS011;6473;51.552;6.716;2022-09-25T09:24:48;3.40;;;1.00;;
12816;SDS011;6473;51.552;6.716;2022-09-25T09:27:30;2.63;;;1.20;;
12816;SDS011;6473;51.552;6.716;2022-09-25T09:30:17;2.28;;;1.33;;
12816;SDS011;6473;51.552;6.716;2022-09-25T09:32:50;2.90;;;1.00;;
12816;SDS011;6473;51.552;6.716;2022-09-25T09:35:30;2.30;;;1.00;;
12816;SDS011;6473;51.552;6.716;2022-09-25T09:38:08;5.78;;;1.35;;
12816;SDS011;6473;51.552;6.716;2022-09-25T09:43:40;2.95;;;1.00;;
12816;SDS011;6473;51.552;6.716;2022-09-25T09:46:17;2.50;;;0.90;;
12816;SDS011;6473;51.552;6.716;2022-09-25T09:48:53;4.85;;;0.98;;
12816;SDS011;6473;51.552;6.716;2022-09-25T09:51:30;4.72;;;1.10;;
12816;SDS011;6473;51.552;6.716;2022-09-25T09:54:01;5.55;;;1.00;;
12816;SDS011;6473;51.552;6.716;2022-09-25T09:56:33;1.17;;;0.80;;
12816;SDS011;6473;51.552;6.716;2022-09-25T09:59:03;3.10;;;1.00;;
12816;SDS011;6473;51.552;6.716;2022-09-25T10:01:33;4.88;;;0.95;;
12816;SDS011;6473;51.552;6.716;2022-09-25T10:04:03;4.05;;;1.13;;
12816;SDS011;6473;51.552;6.716;2022-09-25T10:06:32;3.45;;;1.08;;
12816;SDS011;6473;51.552;6.716;2022-09-25T10:09:02;2.35;;;0.90;;
12816;SDS011;6473;51.552;6.716;2022-09-25T10:11:30;2.30;;;1.33;;
12816;SDS011;6473;51.552;6.716;2022-09-25T10:14:01;1.55;;;0.70;;
12816;SDS011;6473;51.552;6.716;2022-09-25T10:16:30;4.80;;;0.93;;
12816;SDS011;6473;51.552;6.716;2022-09-25T10:18:59;1.25;;;0.68;;
12816;SDS011;6473;51.552;6.716;2022-09-25T10:21:35;5.03;;;1.00;;
12816;SDS011;6473;51.552;6.716;2022-09-25T10:24:05;3.42;;;0.85;;
12816;SDS011;6473;51.552;6.716;2022-09-25T10:26:33;1.85;;;1.00;;
12816;SDS011;6473;51.552;6.716;2022-09-25T10:29:01;4.20;;;1.38;;
12816;SDS011;6473;51.552;6.716;2022-09-25T10:31:32;3.72;;;1.17;;
12816;SDS011;6473;51.552;6.716;2022-09-25T10:34:02;2.90;;;0.98;;
12816;SDS011;6473;51.552;6.716;2022-09-25T10:36:31;6.22;;;1.25;;
12816;SDS011;6473;51.552;6.716;2022-09-25T10:39:01;3.10;;;0.80;;
12816;SDS011;6473;51.552;6.716;2022-09-25T10:41:30;2.78;;;0.73;;
12816;SDS011;6473;51.552;6.716;2022-09-25T10:44:19;1.17;;;0.80;;
12816;SDS011;6473;51.552;6.716;2022-09-25T10:46:47;2.30;;;0.77;;
12816;SDS011;6473;51.552;6.716;2022-09-25T10:49:32;1.30;;;0.57;;
12816;SDS011;6473;51.552;6.716;2022-09-25T10:52:28;3.25;;;0.80;;
12816;SDS011;6473;51.552;6.716;2022-09-25T10:55:18;4.15;;;0.90;;
12816;SDS011;6473;51.552;6.716;2022-09-25T10:57:51;4.20;;;0.82;;
12816;SDS011;6473;51.552;6.716;2022-09-25T11:00:25;3.85;;;1.02;;
12816;SDS011;6473;51.552;6.716;2022-09-25T11:02:53;2.92;;;1.20;;
12816;SDS011;6473;51.552;6.716;2022-09-25T11:05:25;3.10;;;1.00;;
12816;SDS011;6473;51.552;6.716;2022-09-25T11:07:55;2.00;;;0.90;;
12816;SDS011;6473;51.552;6.716;2022-09-25T11:10:25;1.95;;;0.63;;
12816;SDS011;6473;51.552;6.716;2022-09-25T11:12:54;0.60;;;0.60;;
12816;SDS011;6473;51.552;6.716;2022-09-25T11:15:23;2.20;;;0.90;;
12816;SDS011;6473;51.552;6.716;2022-09-25T11:17:53;4.00;;;0.70;;
12816;SDS011;6473;51.552;6.716;2022-09-25T11:20:23;1.10;;;0.75;;
12816;SDS011;6473;51.552;6.716;2022-09-25T11:23:14;1.55;;;0.70;;
12816;SDS011;6473;51.552;6.716;2022-09-25T11:25:52;2.95;;;0.88;;
12816;SDS011;6473;51.552;6.716;2022-09-25T11:28:26;1.88;;;0.80;;
12816;SDS011;6473;51.552;6.716;2022-09-25T11:31:03;2.22;;;0.70;;
12816;SDS011;6473;51.552;6.716;2022-09-25T11:33:38;2.67;;;0.80;;
12816;SDS011;6473;51.552;6.716;2022-09-25T11:36:14;2.00;;;0.60;;
12816;SDS011;6473;51.552;6.716;2022-09-25T11:38:44;1.27;;;0.60;;
12816;SDS011;6473;51.552;6.716;2022-09-25T11:41:31;2.72;;;0.73;;
12816;SDS011;6473;51.552;6.716;2022-09-25T11:44:08;1.42;;;0.65;;
12816;SDS011;6473;51.552;6.716;2022-09-25T11:46:44;2.45;;;0.50;;
12816;SDS011;6473;51.552;6.716;2022-09-25T11:49:18;1.00;;;0.60;;
12816;SDS011;6473;51.552;6.716;2022-09-25T11:54:50;2.17;;;0.75;;
12816;SDS011;6473;51.552;6.716;2022-09-25T11:57:31;2.45;;;0.82;;
12816;SDS011;6473;51.552;6.716;2022-09-25T12:00:06;2.97;;;1.00;;
12816;SDS011;6473;51.552;6.716;2022-09-25T12:02:45;3.67;;;0.70;;
12816;SDS011;6473;51.552;6.716;2022-09-25T12:05:29;2.33;;;0.43;;
12816;SDS011;6473;51.552;6.716;2022-09-25T12:08:08;2.50;;;0.80;;
12816;SDS011;6473;51.552;6.716;2022-09-25T12:10:47;0.68;;;0.50;;
12816;SDS011;6473;51.552;6.716;2022-09-25T12:13:23;1.58;;;0.60;;
12816;SDS011;6473;51.552;6.716;2022-09-25T12:16:04;0.95;;;0.60;;
12816;SDS011;6473;51.552;6.716;2022-09-25T12:21:36;0.65;;;0.65;;
12816;SDS011;6473;51.552;6.716;2022-09-25T12:24:11;3.22;;;0.63;;
12816;SDS011;6473;51.552;6.716;2022-09-25T12:26:47;0.93;;;0.40;;
12816;SDS011;6473;51.552;6.716;2022-09-25T12:29:24;0.80;;;0.57;;
12816;SDS011;6473;51.552;6.716;2022-09-25T12:32:03;1.50;;;0.55;;
12816;SDS011;6473;51.552;6.716;2022-09-25T12:34:48;2.00;;;1.10;;
12816;SDS011;6473;51.552;6.716;2022-09-25T12:37:26;2.00;;;0.63;;
12816;SDS011;6473;51.552;6.716;2022-09-25T12:39:59;1.85;;;0.80;;
12816;SDS011;6473;51.552;6.716;2022-09-25T12:42:33;0.98;;;0.60;;
12816;SDS011;6473;51.552;6.716;2022-09-25T12:45:10;2.28;;;0.70;;
12816;SDS011;6473;51.552;6.716;2022-09-25T12:47:41;0.98;;;0.65;;
12816;SDS011;6473;51.552;6.716;2022-09-25T12:50:19;1.65;;;0.80;;
12816;SDS011;6473;51.552;6.716;2022-09-25T12:52:53;1.00;;;0.40;;
12816;SDS011;6473;51.552;6.716;2022-09-25T12:55:25;1.05;;;0.68;;
12816;SDS011;6473;51.552;6.716;2022-09-25T12:58:04;1.05;;;0.57;;
12816;SDS011;6473;51.552;6.716;2022-09-25T13:00:46;2.13;;;0.50;;
12816;SDS011;6473;51.552;6.716;2022-09-25T13:03:16;3.30;;;0.88;;
12816;SDS011;6473;51.552;6.716;2022-09-25T13:05:56;1.08;;;0.40;;
12816;SDS011;6473;51.552;6.716;2022-09-25T13:08:31;1.02;;;0.68;;
12816;SDS011;6473;51.552;6.716;2022-09-25T13:11:05;0.95;;;0.60;;
12816;SDS011;6473;51.552;6.716;2022-09-25T13:13:39;1.05;;;0.50;;
12816;SDS011;6473;51.552;6.716;2022-09-25T13:16:09;2.20;;;0.57;;
12816;SDS011;6473;51.552;6.716;2022-09-25T13:18:45;1.13;;;0.60;;
12816;SDS011;6473;51.552;6.716;2022-09-25T13:21:24;1.75;;;0.43;;
12816;SDS011;6473;51.552;6.716;2022-09-25T13:23:55;0.63;;;0.50;;
12816;SDS011;6473;51.552;6.716;2022-09-25T13:26:24;1.80;;;0.60;;
12816;SDS011;6473;51.552;6.716;2022-09-25T13:28:54;0.73;;;0.52;;
12816;SDS011;6473;51.552;6.716;2022-09-25T13:31:23;0.75;;;0.43;;
12816;SDS011;6473;51.552;6.716;2022-09-25T13:33:52;2.08;;;0.60;;
12816;SDS011;6473;51.552;6.716;2022-09-25T13:36:33;1.35;;;0.65;;
12816;SDS011;6473;51.552;6.716;2022-09-25T13:39:03;1.17;;;0.47;;
12816;SDS011;6473;51.552;6.716;2022-09-25T13:41:51;2.90;;;0.77;;
12816;SDS011;6473;51.552;6.716;2022-09-25T13:44:36;1.52;;;0.60;;
12816;SDS011;6473;51.552;6.716;2022-09-25T13:50:27;2.35;;;0.90;;
12816;SDS011;6473;51.552;6.716;2022-09-25T13:53:10;1.67;;;0.73;;
12816;SDS011;6473;51.552;6.716;2022-09-25T13:59:00;1.25;;;0.70;;
12816;SDS011;6473;51.552;6.716;2022-09-25T14:01:49;1.30;;;0.57;;
12816;SDS011;6473;51.552;6.716;2022-09-25T14:04:22;1.52;;;0.73;;
12816;SDS011;6473;51.552;6.716;2022-09-25T14:07:06;2.20;;;0.80;;
12816;SDS011;6473;51.552;6.716;2022-09-25T14:09:44;1.70;;;0.80;;
12816;SDS011;6473;51.552;6.716;2022-09-25T14:12:15;3.25;;;0.80;;
12816;SDS011;6473;51.552;6.716;2022-09-25T14:14:49;0.90;;;0.70;;
12816;SDS011;6473;51.552;6.716;2022-09-25T14:17:22;3.65;;;1.00;;
12816;SDS011;6473;51.552;6.716;2022-09-25T14:19:54;0.88;;;0.70;;
12816;SDS011;6473;51.552;6.716;2022-09-25T14:22:27;1.10;;;0.90;;
12816;SDS011;6473;51.552;6.716;2022-09-25T14:24:59;2.55;;;0.70;;
12816;SDS011;6473;51.552;6.716;2022-09-25T14:27:27;1.00;;;0.60;;
12816;SDS011;6473;51.552;6.716;2022-09-25T14:30:09;3.83;;;0.90;;
12816;SDS011;6473;51.552;6.716;2022-09-25T14:32:44;1.65;;;0.43;;
12816;SDS011;6473;51.552;6.716;2022-09-25T14:35:24;1.83;;;0.70;;
12816;SDS011;6473;51.552;6.716;2022-09-25T14:44:01;2.25;;;0.80;;
12816;SDS011;6473;51.552;6.716;2022-09-25T14:46:42;2.38;;;0.55;;
12816;SDS011;6473;51.552;6.716;2022-09-25T14:49:16;1.45;;;0.73;;
12816;SDS011;6473;51.552;6.716;2022-09-25T14:51:49;1.25;;;0.40;;
12816;SDS011;6473;51.552;6.716;2022-09-25T14:54:20;0.70;;;0.60;;
12816;SDS011;6473;51.552;6.716;2022-09-25T14:56:53;2.63;;;0.70;;
12816;SDS011;6473;51.552;6.716;2022-09-25T14:59:23;2.28;;;0.70;;
12816;SDS011;6473;51.552;6.716;2022-09-25T15:01:55;1.35;;;0.52;;
12816;SDS011;6473;51.552;6.716;2022-09-25T15:04:27;0.65;;;0.50;;
12816;SDS011;6473;51.552;6.716;2022-09-25T15:06:58;1.33;;;0.60;;
12816;SDS011;6473;51.552;6.716;2022-09-25T15:09:29;2.33;;;0.70;;
12816;SDS011;6473;51.552;6.716;2022-09-25T15:12:08;1.17;;;0.50;;
12816;SDS011;6473;51.552;6.716;2022-09-25T15:14:56;1.38;;;0.60;;
12816;SDS011;6473;51.552;6.716;2022-09-25T15:17:31;3.75;;;0.90;;
12816;SDS011;6473;51.552;6.716;2022-09-25T15:20:02;0.50;;;0.50;;
12816;SDS011;6473;51.552;6.716;2022-09-25T15:22:32;2.33;;;0.70;;
12816;SDS011;6473;51.552;6.716;2022-09-25T15:25:04;0.82;;;0.70;;
12816;SDS011;6473;51.552;6.716;2022-09-25T15:27:34;1.73;;;0.77;;
12816;SDS011;6473;51.552;6.716;2022-09-25T15:30:12;0.73;;;0.65;;
12816;SDS011;6473;51.552;6.716;2022-09-25T15:32:40;1.33;;;0.68;;
12816;SDS011;6473;51.552;6.716;2022-09-25T15:35:13;1.10;;;0.85;;
12816;SDS011;6473;51.552;6.716;2022-09-25T15:37:42;1.17;;;0.70;;
12816;SDS011;6473;51.552;6.716;2022-09-25T15:40:20;1.33;;;0.70;;
12816;SDS011;6473;51.552;6.716;2022-09-25T15:42:51;2.83;;;0.80;;
12816;SDS011;6473;51.552;6.716;2022-09-25T15:45:35;2.70;;;0.90;;
12816;SDS011;6473;51.552;6.716;2022-09-25T15:50:57;0.70;;;0.70;;
12816;SDS011;6473;51.552;6.716;2022-09-25T15:53:27;2.10;;;0.95;;
12816;SDS011;6473;51.552;6.716;2022-09-25T15:56:04;3.15;;;0.77;;